Startpagina
METAR-TAF:

METAR-TAF

Vliegvelden :

Ndjamena, Tsjaad

breedte: 12-08N, lengte: 015-02E, hoogte: 295 m

Actueel weer

Dit bericht is 37 minuten geleden gemaakt, om 03:00 UTC
Wind 6 kt uit het noorden
Temperatuur 19°C
Vochtigheid 28%
Druk 1013 hPa
Zicht 10 km of meer
geen wolken onder 1500 m en geen cumulonimbus

METAR: FTTJ 190300Z 01006KT CAVOK 19/00 Q1013 NOSIG

Tijdstip: 04:37 (03:37 UTC)

Verwachting

Dit bericht is 4 uur en het 37 minuten geleden gemaakt, om 23:00 UTC
Verwachting geldig van 19 om 00 UTC tot 20 om 06 UTC
Wind 10 kt uit het noorden
Zicht: 8000 m
Tijdelijke
van 19 om 02 UTC tot 19 om 08 UTC
Zicht: 3500 m
verspreid stof
Tijdelijke
van 19 om 19 UTC tot 20 om 01 UTC
Zicht: 2500 m
verspreid stof

TAF: FTTJ 182300Z 1900/2006 01010KT 8000 NSC TEMPO 1902/1908 3500 DU TEMPO 1919/2001 2500 DU

Waarnemingen en weersverwachtingen van meer dan 4000 vliegvelden (METAR en TAF).

De beschikbare stations zijn de gele en rode punten op de kaart.

Ga met uw muis naar het station om de naam te zien.

Klik dan om waarnemingen en weersverwachtingen te zien.

kaart wijzigen: klik op de groene knoppen met een zwart kruis om in te zoomen, op de groene knop met een streepje om uit te zoomen of op de groene pijlen voor aangrenzende kaarten.


METAR-TAF: